createdAt,value
2017-10-06T00:00:50.363Z,0
2017-10-06T00:01:59.354Z,0
2017-10-06T00:03:08.198Z,0
2017-10-06T00:04:17.044Z,0
2017-10-06T00:05:25.887Z,0
2017-10-06T00:06:34.731Z,0
2017-10-06T00:07:43.723Z,0
2017-10-06T00:08:52.564Z,0
2017-10-06T00:10:01.407Z,0
2017-10-06T00:11:10.250Z,0
2017-10-06T00:12:19.093Z,0
2017-10-06T00:13:27.989Z,0
2017-10-06T00:14:36.832Z,0
2017-10-06T00:15:45.673Z,0
2017-10-06T00:16:54.514Z,0
2017-10-06T00:18:03.354Z,0
2017-10-06T00:19:13.622Z,0
2017-10-06T00:20:22.464Z,0
2017-10-06T00:21:31.307Z,0
2017-10-06T00:22:40.147Z,0
2017-10-06T00:23:48.989Z,0
2017-10-06T00:24:58.083Z,0
2017-10-06T00:26:06.925Z,0
2017-10-06T00:27:15.767Z,0
2017-10-06T00:28:24.608Z,0
2017-10-06T00:29:33.446Z,0
2017-10-06T00:30:42.768Z,0
2017-10-06T00:31:51.609Z,0
2017-10-06T00:33:00.781Z,0
2017-10-06T00:34:09.626Z,0
2017-10-06T00:35:18.468Z,0
2017-10-06T00:36:27.745Z,0
2017-10-06T00:37:36.587Z,0
2017-10-06T00:38:45.429Z,0
2017-10-06T00:39:54.272Z,0
2017-10-06T00:41:03.112Z,0
2017-10-06T00:42:11.955Z,0
2017-10-06T00:43:20.796Z,0
2017-10-06T00:44:29.636Z,0
2017-10-06T00:45:38.478Z,0
2017-10-06T00:46:47.653Z,0
2017-10-06T00:47:56.977Z,0
2017-10-06T00:49:05.820Z,0
2017-10-06T00:50:14.660Z,0
2017-10-06T00:51:23.503Z,0
2017-10-06T00:52:32.352Z,0
2017-10-06T00:53:41.347Z,0
2017-10-06T00:54:50.189Z,0
2017-10-06T00:55:59.032Z,0
2017-10-06T00:57:08.210Z,0
2017-10-06T00:58:17.052Z,0
2017-10-06T00:59:26.042Z,0
2017-10-06T01:00:34.883Z,0
2017-10-06T01:01:43.723Z,0
2017-10-06T01:02:52.565Z,0
2017-10-06T01:04:01.406Z,0
2017-10-06T01:05:10.298Z,0
2017-10-06T01:06:19.137Z,0
2017-10-06T01:07:27.981Z,0
2017-10-06T01:08:36.821Z,0
2017-10-06T01:09:45.663Z,0
2017-10-06T01:10:54.606Z,0
2017-10-06T01:12:03.459Z,0
2017-10-06T01:13:12.293Z,0
2017-10-06T01:14:21.135Z,0
2017-10-06T01:15:29.978Z,0
2017-10-06T01:16:38.970Z,0
2017-10-06T01:17:47.813Z,0
2017-10-06T01:18:56.654Z,0
2017-10-06T01:20:05.496Z,0
2017-10-06T01:21:14.339Z,0
2017-10-06T01:22:23.335Z,0
2017-10-06T01:23:32.177Z,0
2017-10-06T01:24:41.352Z,0
2017-10-06T01:25:50.191Z,0
2017-10-06T01:26:59.032Z,0
2017-10-06T01:28:08.260Z,0
2017-10-06T01:29:17.101Z,0
2017-10-06T01:30:25.942Z,0
2017-10-06T01:31:34.786Z,0
2017-10-06T01:32:43.630Z,0
2017-10-06T01:33:52.623Z,0
2017-10-06T01:35:01.462Z,0
2017-10-06T01:36:10.303Z,0
2017-10-06T01:37:19.485Z,0
2017-10-06T01:38:28.327Z,0
2017-10-06T01:39:37.415Z,0
2017-10-06T01:40:46.256Z,0
2017-10-06T01:41:55.097Z,0
2017-10-06T01:43:03.937Z,0
2017-10-06T01:44:12.779Z,0
2017-10-06T01:45:21.676Z,0
2017-10-06T01:46:30.517Z,0
2017-10-06T01:47:39.360Z,0
2017-10-06T01:48:48.201Z,0
2017-10-06T01:49:57.049Z,0
2017-10-06T01:51:06.088Z,0
2017-10-06T01:52:15.259Z,0
2017-10-06T01:53:24.103Z,0
2017-10-06T01:54:33.303Z,0
2017-10-06T01:55:42.143Z,0
2017-10-06T01:56:50.989Z,0
2017-10-06T01:58:00.162Z,0
2017-10-06T01:59:09.004Z,0
2017-10-06T02:00:17.845Z,0
2017-10-06T02:01:26.686Z,0
2017-10-06T02:02:35.677Z,0
2017-10-06T02:03:44.516Z,0
2017-10-06T02:04:53.357Z,0
2017-10-06T02:06:02.204Z,0
2017-10-06T02:07:11.049Z,0
2017-10-06T02:08:19.988Z,0
2017-10-06T02:09:29.175Z,0
2017-10-06T02:10:38.015Z,0
2017-10-06T02:11:46.857Z,0
2017-10-06T02:12:55.697Z,0
2017-10-06T02:14:04.590Z,0
2017-10-06T02:15:13.428Z,0
2017-10-06T02:16:22.610Z,0
2017-10-06T02:17:31.453Z,0
2017-10-06T02:18:40.295Z,0
2017-10-06T02:19:49.286Z,0
2017-10-06T02:20:58.130Z,0
2017-10-06T02:22:06.971Z,0
2017-10-06T02:23:15.812Z,0
2017-10-06T02:24:24.654Z,0
2017-10-06T02:25:33.699Z,0
2017-10-06T02:26:42.539Z,0
2017-10-06T02:27:51.381Z,0
2017-10-06T02:29:00.560Z,0
2017-10-06T02:30:09.746Z,0
2017-10-06T02:31:18.688Z,0
2017-10-06T02:32:27.530Z,0
2017-10-06T02:33:36.370Z,0
2017-10-06T02:34:45.216Z,0
2017-10-06T02:35:54.060Z,0
2017-10-06T02:37:02.948Z,0
2017-10-06T02:38:11.801Z,0
2017-10-06T02:39:20.645Z,0
2017-10-06T02:40:29.485Z,0
2017-10-06T02:41:38.781Z,0
2017-10-06T02:42:47.624Z,0
2017-10-06T02:43:56.466Z,0
2017-10-06T02:45:05.308Z,0
2017-10-06T02:46:14.151Z,0
2017-10-06T02:47:22.990Z,0
2017-10-06T02:48:31.884Z,0
2017-10-06T02:49:40.731Z,0
2017-10-06T02:50:49.927Z,0
2017-10-06T02:51:58.770Z,0
2017-10-06T02:53:07.947Z,0
2017-10-06T02:54:16.889Z,0
2017-10-06T02:55:25.727Z,0
2017-10-06T02:56:34.570Z,0
2017-10-06T02:57:43.411Z,0
2017-10-06T02:58:52.253Z,0
2017-10-06T03:00:01.248Z,0
2017-10-06T03:01:10.092Z,0
2017-10-06T03:02:18.934Z,0
2017-10-06T03:03:27.776Z,0
2017-10-06T03:04:36.619Z,0
2017-10-06T03:05:45.761Z,0
2017-10-06T03:06:54.601Z,0
2017-10-06T03:08:03.443Z,0
2017-10-06T03:09:12.622Z,0
2017-10-06T03:10:21.462Z,0
2017-10-06T03:11:30.406Z,0
2017-10-06T03:12:39.248Z,0
2017-10-06T03:13:48.088Z,0
2017-10-06T03:14:56.928Z,0
2017-10-06T03:16:05.771Z,0
2017-10-06T03:17:14.712Z,0
2017-10-06T03:18:23.577Z,0
2017-10-06T03:19:32.395Z,0
2017-10-06T03:20:41.238Z,0
2017-10-06T03:21:50.082Z,0
2017-10-06T03:22:59.171Z,0
2017-10-06T03:24:08.012Z,0
2017-10-06T03:25:16.856Z,0
2017-10-06T03:26:25.697Z,0
2017-10-06T03:27:34.541Z,0
2017-10-06T03:28:43.482Z,0
2017-10-06T03:29:52.328Z,0
2017-10-06T03:31:01.170Z,0
2017-10-06T03:32:10.010Z,0
2017-10-06T03:33:18.852Z,0
2017-10-06T03:34:27.796Z,0
2017-10-06T03:35:36.636Z,0
2017-10-06T03:36:45.477Z,0
2017-10-06T03:37:54.320Z,0
2017-10-06T03:39:03.157Z,0
2017-10-06T03:40:12.250Z,0
2017-10-06T03:41:21.091Z,0
2017-10-06T03:42:29.933Z,0
2017-10-06T03:43:38.781Z,0
2017-10-06T03:44:47.628Z,0
2017-10-06T03:45:56.664Z,0
2017-10-06T03:47:05.509Z,0
2017-10-06T03:48:14.351Z,0
2017-10-06T03:49:23.194Z,0
2017-10-06T03:50:32.035Z,0
2017-10-06T03:51:40.927Z,0
2017-10-06T03:52:49.769Z,0
2017-10-06T03:53:58.611Z,0
2017-10-06T03:55:07.456Z,0
2017-10-06T03:56:16.297Z,0
2017-10-06T03:57:25.621Z,0
2017-10-06T03:58:34.463Z,0
2017-10-06T03:59:43.304Z,0
2017-10-06T04:00:52.144Z,0
2017-10-06T04:02:00.986Z,0
2017-10-06T04:03:10.329Z,0
2017-10-06T04:04:19.171Z,0
2017-10-06T04:05:28.015Z,0
2017-10-06T04:06:36.855Z,0
2017-10-06T04:07:45.697Z,0
2017-10-06T04:08:54.687Z,0
2017-10-06T04:10:03.529Z,0
2017-10-06T04:11:12.372Z,0
2017-10-06T04:12:21.213Z,0
2017-10-06T04:13:30.389Z,0
2017-10-06T04:14:39.281Z,0
2017-10-06T04:15:48.121Z,0
2017-10-06T04:16:56.961Z,0
2017-10-06T04:18:05.805Z,0
2017-10-06T04:19:14.644Z,0
2017-10-06T04:20:23.636Z,0
2017-10-06T04:21:32.477Z,0
2017-10-06T04:22:41.321Z,0
2017-10-06T04:23:50.164Z,0
2017-10-06T04:24:59.004Z,0
2017-10-06T04:26:07.945Z,0
2017-10-06T04:27:16.789Z,0
2017-10-06T04:28:25.632Z,0
2017-10-06T04:29:34.476Z,0
2017-10-06T04:30:43.317Z,0
2017-10-06T04:31:52.308Z,0
2017-10-06T04:33:01.153Z,0
2017-10-06T04:34:09.994Z,0
2017-10-06T04:35:18.838Z,0
2017-10-06T04:36:27.683Z,0
2017-10-06T04:37:36.826Z,0
2017-10-06T04:38:45.669Z,0
2017-10-06T04:39:54.511Z,0
2017-10-06T04:41:03.351Z,0
2017-10-06T04:42:12.191Z,0
2017-10-06T04:43:21.031Z,0
2017-10-06T04:44:29.871Z,0
2017-10-06T04:45:38.713Z,0
2017-10-06T04:46:47.556Z,0
2017-10-06T04:47:56.398Z,0
2017-10-06T04:49:05.338Z,0
2017-10-06T04:50:14.178Z,0
2017-10-06T04:51:23.017Z,0
2017-10-06T04:52:31.857Z,0
2017-10-06T04:53:40.702Z,0
2017-10-06T04:54:49.943Z,0
2017-10-06T04:55:58.785Z,0
2017-10-06T04:57:07.626Z,0
2017-10-06T04:58:16.466Z,0
2017-10-06T04:59:25.306Z,0
2017-10-06T05:00:34.250Z,0
2017-10-06T05:01:43.095Z,0
2017-10-06T05:02:51.942Z,0
2017-10-06T05:04:00.780Z,0
2017-10-06T05:05:09.953Z,0
2017-10-06T05:06:18.845Z,0
2017-10-06T05:07:27.688Z,0
2017-10-06T05:08:36.531Z,0
2017-10-06T05:09:45.709Z,0
2017-10-06T05:10:54.550Z,0
2017-10-06T05:12:03.491Z,0
2017-10-06T05:13:12.334Z,0
2017-10-06T05:14:21.511Z,0
2017-10-06T05:15:30.353Z,0
2017-10-06T05:16:39.196Z,0
2017-10-06T05:17:48.192Z,0
2017-10-06T05:18:57.032Z,0
2017-10-06T05:20:05.873Z,0
2017-10-06T05:21:14.717Z,0
2017-10-06T05:22:23.890Z,0
2017-10-06T05:23:32.735Z,0
2017-10-06T05:24:41.909Z,0
2017-10-06T05:25:50.750Z,0
2017-10-06T05:26:59.593Z,0
2017-10-06T05:28:08.441Z,0
2017-10-06T05:29:17.814Z,0
2017-10-06T05:30:26.655Z,0
2017-10-06T05:31:35.494Z,0
2017-10-06T05:32:44.333Z,0
2017-10-06T05:33:53.178Z,5
2017-10-06T05:35:02.120Z,5
2017-10-06T05:36:10.960Z,5
2017-10-06T05:37:19.803Z,5
2017-10-06T05:38:28.644Z,10
2017-10-06T05:39:37.485Z,10
2017-10-06T05:40:46.378Z,10
2017-10-06T05:41:55.224Z,10
2017-10-06T05:43:04.068Z,15
2017-10-06T05:44:12.908Z,15
2017-10-06T05:45:21.750Z,15
2017-10-06T05:46:30.743Z,15
2017-10-06T05:47:39.585Z,20
2017-10-06T05:48:48.431Z,20
2017-10-06T05:49:57.280Z,20
2017-10-06T05:51:06.116Z,20
2017-10-06T05:52:15.358Z,20
2017-10-06T05:53:24.201Z,15
2017-10-06T05:54:33.043Z,10
2017-10-06T05:55:41.885Z,10
2017-10-06T05:56:50.729Z,10
2017-10-06T05:57:59.721Z,10
2017-10-06T05:59:08.563Z,5
2017-10-06T06:00:17.408Z,5
2017-10-06T06:01:26.252Z,5
2017-10-06T06:02:35.093Z,5
2017-10-06T06:03:44.038Z,5
2017-10-06T06:04:52.877Z,5
2017-10-06T06:06:01.719Z,10
2017-10-06T06:07:10.564Z,10
2017-10-06T06:08:19.407Z,10
2017-10-06T06:09:28.347Z,15
2017-10-06T06:10:37.191Z,10
2017-10-06T06:11:46.363Z,10
2017-10-06T06:12:55.205Z,5
2017-10-06T06:14:04.045Z,0
2017-10-06T06:15:13.189Z,5
2017-10-06T06:16:22.029Z,0
2017-10-06T06:17:30.874Z,5
2017-10-06T06:18:39.715Z,0
2017-10-06T06:19:48.559Z,0
2017-10-06T06:20:57.651Z,5
2017-10-06T06:22:06.499Z,5
2017-10-06T06:23:15.343Z,5
2017-10-06T06:24:24.185Z,5
2017-10-06T06:25:33.026Z,5
2017-10-06T06:26:41.917Z,5
2017-10-06T06:27:50.758Z,5
2017-10-06T06:28:59.601Z,10
2017-10-06T06:30:08.443Z,15
2017-10-06T06:31:17.284Z,15
2017-10-06T06:32:26.176Z,20
2017-10-06T06:33:35.020Z,25
2017-10-06T06:34:44.197Z,30
2017-10-06T06:35:53.039Z,30
2017-10-06T06:37:01.880Z,20
2017-10-06T06:38:10.823Z,15
2017-10-06T06:39:19.664Z,20
2017-10-06T06:40:28.506Z,25
2017-10-06T06:41:37.349Z,25
2017-10-06T06:42:46.190Z,30
2017-10-06T06:43:55.282Z,40
2017-10-06T06:45:04.467Z,40
2017-10-06T06:46:13.311Z,45
2017-10-06T06:47:22.154Z,55
2017-10-06T06:48:30.997Z,65
2017-10-06T06:49:39.990Z,70
2017-10-06T06:50:48.831Z,80
2017-10-06T06:51:57.680Z,85
2017-10-06T06:53:06.518Z,95
2017-10-06T06:54:15.378Z,100
2017-10-06T06:55:24.203Z,110
2017-10-06T06:56:33.045Z,120
2017-10-06T06:57:41.887Z,125
2017-10-06T06:58:50.730Z,130
2017-10-06T06:59:59.571Z,125
2017-10-06T07:01:08.464Z,115
2017-10-06T07:02:17.307Z,95
2017-10-06T07:03:26.150Z,40
2017-10-06T07:04:34.993Z,30
2017-10-06T07:05:43.835Z,30
2017-10-06T07:06:52.678Z,35
2017-10-06T07:08:01.520Z,45
2017-10-06T07:09:10.363Z,55
2017-10-06T07:10:19.204Z,55
2017-10-06T07:11:28.048Z,55
2017-10-06T07:12:36.939Z,55
2017-10-06T07:13:45.834Z,50
2017-10-06T07:14:54.677Z,55
2017-10-06T07:16:03.522Z,70
2017-10-06T07:17:12.363Z,105
2017-10-06T07:18:21.504Z,155
2017-10-06T07:19:30.349Z,175
2017-10-06T07:20:39.191Z,185
2017-10-06T07:21:48.032Z,190
2017-10-06T07:22:56.875Z,190
2017-10-06T07:24:05.818Z,190
2017-10-06T07:25:14.661Z,185
2017-10-06T07:26:23.503Z,175
2017-10-06T07:27:32.346Z,175
2017-10-06T07:28:41.189Z,165
2017-10-06T07:29:50.182Z,170
2017-10-06T07:30:59.026Z,120
2017-10-06T07:32:07.871Z,60
2017-10-06T07:33:16.717Z,45
2017-10-06T07:34:25.559Z,40
2017-10-06T07:35:34.457Z,35
2017-10-06T07:36:43.298Z,30
2017-10-06T07:37:52.143Z,35
2017-10-06T07:39:00.989Z,40
2017-10-06T07:40:09.834Z,45
2017-10-06T07:41:18.726Z,50
2017-10-06T07:42:27.574Z,60
2017-10-06T07:43:36.416Z,65
2017-10-06T07:44:45.258Z,70
2017-10-06T07:45:54.101Z,80
2017-10-06T07:47:02.998Z,85
2017-10-06T07:48:11.841Z,95
2017-10-06T07:49:20.682Z,115
2017-10-06T07:50:29.860Z,135
2017-10-06T07:51:38.703Z,165
2017-10-06T07:52:47.744Z,200
2017-10-06T07:53:56.588Z,240
2017-10-06T07:55:05.431Z,275
2017-10-06T07:56:14.273Z,285
2017-10-06T07:57:23.114Z,280
2017-10-06T07:58:32.007Z,260
2017-10-06T07:59:40.850Z,230
2017-10-06T08:00:49.693Z,210
2017-10-06T08:01:58.535Z,215
2017-10-06T08:03:07.711Z,225
2017-10-06T08:04:17.189Z,230
2017-10-06T08:05:26.035Z,230
2017-10-06T08:06:34.883Z,225
2017-10-06T08:07:43.722Z,225
2017-10-06T08:08:52.565Z,210
2017-10-06T08:10:01.558Z,195
2017-10-06T08:11:10.400Z,165
2017-10-06T08:12:19.243Z,155
2017-10-06T08:13:28.287Z,180
2017-10-06T08:14:37.130Z,225
2017-10-06T08:15:46.226Z,225
2017-10-06T08:16:55.068Z,230
2017-10-06T08:18:03.914Z,225
2017-10-06T08:19:12.758Z,220
2017-10-06T08:20:21.603Z,220
2017-10-06T08:21:30.551Z,230
2017-10-06T08:22:39.396Z,225
2017-10-06T08:23:48.241Z,220
2017-10-06T08:24:57.085Z,230
2017-10-06T08:26:05.929Z,275
2017-10-06T08:27:14.973Z,295
2017-10-06T08:28:23.817Z,300
2017-10-06T08:29:32.664Z,305
2017-10-06T08:30:41.506Z,345
2017-10-06T08:31:50.354Z,310
2017-10-06T08:32:59.298Z,290
2017-10-06T08:34:08.144Z,285
2017-10-06T08:35:16.990Z,285
2017-10-06T08:36:25.838Z,295
2017-10-06T08:37:34.686Z,300
2017-10-06T08:38:43.629Z,285
2017-10-06T08:39:52.477Z,295
2017-10-06T08:41:01.323Z,315
2017-10-06T08:42:10.167Z,325
2017-10-06T08:43:19.010Z,315
2017-10-06T08:44:28.006Z,310
2017-10-06T08:45:36.849Z,305
2017-10-06T08:46:45.699Z,285
2017-10-06T08:47:54.546Z,280
2017-10-06T08:49:03.392Z,285
2017-10-06T08:50:12.971Z,290
2017-10-06T08:51:22.152Z,300
2017-10-06T08:52:31.335Z,315
2017-10-06T08:53:40.854Z,340
2017-10-06T08:54:49.696Z,415
2017-10-06T08:55:58.742Z,385
2017-10-06T08:57:07.585Z,360
2017-10-06T08:58:16.431Z,340
2017-10-06T08:59:25.278Z,415
2017-10-06T09:00:34.122Z,365
2017-10-06T09:01:43.446Z,250
2017-10-06T09:02:52.292Z,255
2017-10-06T09:04:01.139Z,290
2017-10-06T09:05:09.985Z,350
2017-10-06T09:06:18.831Z,395
2017-10-06T09:07:27.827Z,390
2017-10-06T09:08:36.672Z,480
2017-10-06T09:09:45.518Z,540
2017-10-06T09:10:54.363Z,550
2017-10-06T09:12:03.210Z,575
2017-10-06T09:13:12.106Z,535
2017-10-06T09:14:20.951Z,510
2017-10-06T09:15:29.796Z,460
2017-10-06T09:16:38.645Z,450
2017-10-06T09:17:47.490Z,425
2017-10-06T09:18:56.490Z,395
2017-10-06T09:20:05.337Z,360
2017-10-06T09:21:14.182Z,285
2017-10-06T09:22:23.364Z,225
2017-10-06T09:23:32.209Z,225
2017-10-06T09:24:41.055Z,230
2017-10-06T09:25:49.901Z,255
2017-10-06T09:26:58.798Z,275
2017-10-06T09:28:07.974Z,275
2017-10-06T09:29:16.819Z,280
2017-10-06T09:30:25.713Z,275
2017-10-06T09:31:34.556Z,340
2017-10-06T09:32:43.737Z,375
2017-10-06T09:33:52.581Z,375
2017-10-06T09:35:01.425Z,375
2017-10-06T09:36:10.321Z,360
2017-10-06T09:37:19.165Z,365
2017-10-06T09:38:28.011Z,410
2017-10-06T09:39:36.858Z,455
2017-10-06T09:40:45.706Z,510
2017-10-06T09:41:54.553Z,445
2017-10-06T09:43:03.740Z,290
2017-10-06T09:44:12.586Z,180
2017-10-06T09:45:21.429Z,150
2017-10-06T09:46:30.275Z,160
2017-10-06T09:47:39.425Z,150
2017-10-06T09:48:48.601Z,140
2017-10-06T09:49:57.446Z,175
2017-10-06T09:51:06.294Z,185
2017-10-06T09:52:15.466Z,175
2017-10-06T09:53:24.410Z,245
2017-10-06T09:54:33.255Z,270
2017-10-06T09:55:42.099Z,260
2017-10-06T09:56:50.944Z,250
2017-10-06T09:57:59.790Z,250
2017-10-06T09:59:08.733Z,305
2017-10-06T10:00:17.607Z,285
2017-10-06T10:01:26.453Z,175
2017-10-06T10:02:35.657Z,160
2017-10-06T10:03:44.501Z,190
2017-10-06T10:04:53.346Z,210
2017-10-06T10:06:02.191Z,335
2017-10-06T10:07:11.036Z,380
2017-10-06T10:08:19.881Z,435
2017-10-06T10:09:28.728Z,465
2017-10-06T10:10:37.674Z,490
2017-10-06T10:11:46.518Z,560
2017-10-06T10:12:55.364Z,660
2017-10-06T10:14:04.210Z,700
2017-10-06T10:15:13.056Z,605
2017-10-06T10:16:21.953Z,415
2017-10-06T10:17:30.798Z,245
2017-10-06T10:18:39.645Z,190
2017-10-06T10:19:48.489Z,150
2017-10-06T10:20:57.336Z,105
2017-10-06T10:22:06.284Z,85
2017-10-06T10:23:15.127Z,75
2017-10-06T10:24:23.974Z,65
2017-10-06T10:25:32.819Z,55
2017-10-06T10:26:41.664Z,55
2017-10-06T10:27:50.656Z,50
2017-10-06T10:28:59.502Z,40
2017-10-06T10:30:08.348Z,40
2017-10-06T10:31:17.190Z,40
2017-10-06T10:32:26.034Z,25
2017-10-06T10:33:34.881Z,30
2017-10-06T10:34:43.724Z,20
2017-10-06T10:35:52.570Z,20
2017-10-06T10:37:01.746Z,10
2017-10-06T10:38:10.590Z,15
2017-10-06T10:39:19.534Z,30
2017-10-06T10:40:28.379Z,25
2017-10-06T10:41:37.554Z,30
2017-10-06T10:42:46.398Z,35
2017-10-06T10:43:55.241Z,35
2017-10-06T10:45:04.081Z,45
2017-10-06T10:46:12.926Z,65
2017-10-06T10:47:22.109Z,65
2017-10-06T10:48:30.951Z,60
2017-10-06T10:49:39.797Z,55
2017-10-06T10:50:48.642Z,50
2017-10-06T10:51:57.485Z,60
2017-10-06T10:53:06.330Z,70
2017-10-06T10:54:15.504Z,80
2017-10-06T10:55:24.346Z,110
2017-10-06T10:56:33.339Z,155
2017-10-06T10:57:42.514Z,175
2017-10-06T10:58:51.358Z,180
2017-10-06T11:00:00.201Z,150
2017-10-06T11:01:09.048Z,110
2017-10-06T11:02:17.993Z,85
2017-10-06T11:03:26.844Z,70
2017-10-06T11:04:35.686Z,55
2017-10-06T11:05:44.528Z,35
2017-10-06T11:06:53.372Z,30
2017-10-06T11:08:02.217Z,25
2017-10-06T11:09:11.063Z,35
2017-10-06T11:10:19.906Z,40
2017-10-06T11:11:28.750Z,50
2017-10-06T11:12:37.593Z,65
2017-10-06T11:13:46.588Z,80
2017-10-06T11:14:55.428Z,85
2017-10-06T11:16:04.271Z,95
2017-10-06T11:17:13.114Z,115
2017-10-06T11:18:21.957Z,130
2017-10-06T11:19:31.004Z,125
2017-10-06T11:20:39.849Z,115
2017-10-06T11:21:48.692Z,120
2017-10-06T11:22:57.538Z,165
2017-10-06T11:24:06.381Z,280
2017-10-06T11:25:15.328Z,380
2017-10-06T11:26:24.174Z,400
2017-10-06T11:27:33.019Z,325
2017-10-06T11:28:42.198Z,205
2017-10-06T11:29:51.040Z,155
2017-10-06T11:31:00.033Z,170
2017-10-06T11:32:08.878Z,175
2017-10-06T11:33:17.721Z,180
2017-10-06T11:34:26.571Z,165
2017-10-06T11:35:35.416Z,140
2017-10-06T11:36:44.310Z,115
2017-10-06T11:37:53.153Z,90
2017-10-06T11:39:02.000Z,75
2017-10-06T11:40:10.846Z,65
2017-10-06T11:41:19.690Z,60
2017-10-06T11:42:28.788Z,75
2017-10-06T11:43:37.632Z,105
2017-10-06T11:44:46.477Z,120
2017-10-06T11:45:55.321Z,140
2017-10-06T11:47:04.164Z,215
2017-10-06T11:48:13.159Z,245
2017-10-06T11:49:22.003Z,235
2017-10-06T11:50:30.846Z,195
2017-10-06T11:51:39.692Z,130
2017-10-06T11:52:48.541Z,135
2017-10-06T11:53:57.386Z,125
2017-10-06T11:55:06.229Z,135
2017-10-06T11:56:15.071Z,185
2017-10-06T11:57:23.914Z,140
2017-10-06T11:58:32.763Z,120
2017-10-06T11:59:42.087Z,90
2017-10-06T12:00:50.932Z,85
2017-10-06T12:01:59.776Z,65
2017-10-06T12:03:08.957Z,45
2017-10-06T12:04:17.800Z,30
2017-10-06T12:05:26.694Z,25
2017-10-06T12:06:35.539Z,25
2017-10-06T12:07:44.382Z,25
2017-10-06T12:08:53.225Z,30
2017-10-06T12:10:02.066Z,50
2017-10-06T12:11:10.960Z,60
2017-10-06T12:12:19.805Z,65
2017-10-06T12:13:28.645Z,70
2017-10-06T12:14:37.490Z,75
2017-10-06T12:15:46.334Z,90
2017-10-06T12:16:55.280Z,115
2017-10-06T12:18:04.124Z,125
2017-10-06T12:19:12.969Z,110
2017-10-06T12:20:21.817Z,105
2017-10-06T12:21:30.659Z,120
2017-10-06T12:22:39.805Z,150
2017-10-06T12:23:48.647Z,175
2017-10-06T12:24:57.492Z,185
2017-10-06T12:26:06.337Z,195
2017-10-06T12:27:15.178Z,215
2017-10-06T12:28:24.020Z,315
2017-10-06T12:29:32.865Z,435
2017-10-06T12:30:41.710Z,340
2017-10-06T12:31:50.557Z,255
2017-10-06T12:32:59.399Z,340
2017-10-06T12:34:08.679Z,695
2017-10-06T12:35:17.526Z,745
2017-10-06T12:36:26.370Z,1030
2017-10-06T12:37:35.554Z,925
2017-10-06T12:38:44.398Z,735
2017-10-06T12:39:53.345Z,480
2017-10-06T12:41:02.190Z,195
2017-10-06T12:42:11.040Z,190
2017-10-06T12:43:19.886Z,215
2017-10-06T12:44:28.732Z,280
2017-10-06T12:45:37.781Z,305
2017-10-06T12:46:46.626Z,310
2017-10-06T12:47:55.472Z,230
2017-10-06T12:49:04.318Z,205
2017-10-06T12:50:13.162Z,250
2017-10-06T12:51:22.408Z,485
2017-10-06T12:52:31.254Z,515
2017-10-06T12:53:40.098Z,595
2017-10-06T12:54:48.942Z,530
2017-10-06T12:55:57.786Z,460
2017-10-06T12:57:06.632Z,440
2017-10-06T12:58:15.817Z,435
2017-10-06T12:59:24.665Z,495
2017-10-06T13:00:33.513Z,560
2017-10-06T13:01:42.358Z,645
2017-10-06T13:02:51.457Z,550
2017-10-06T13:04:00.304Z,440
2017-10-06T13:05:09.159Z,340
2017-10-06T13:06:18.007Z,315
2017-10-06T13:07:26.853Z,270
2017-10-06T13:08:35.898Z,390
2017-10-06T13:09:44.745Z,320
2017-10-06T13:10:53.592Z,240
2017-10-06T13:12:02.438Z,200
2017-10-06T13:13:11.285Z,130
2017-10-06T13:14:20.246Z,120
2017-10-06T13:15:29.076Z,165
2017-10-06T13:16:37.923Z,145
2017-10-06T13:17:46.770Z,145
2017-10-06T13:18:55.615Z,155
2017-10-06T13:20:04.511Z,155
2017-10-06T13:21:13.359Z,165
2017-10-06T13:22:22.206Z,150
2017-10-06T13:23:31.054Z,135
2017-10-06T13:24:39.903Z,130
2017-10-06T13:25:48.797Z,125
2017-10-06T13:26:57.643Z,130
2017-10-06T13:28:06.486Z,135
2017-10-06T13:29:15.331Z,165
2017-10-06T13:30:24.176Z,225
2017-10-06T13:31:33.269Z,275
2017-10-06T13:32:42.114Z,315
2017-10-06T13:33:50.962Z,530
2017-10-06T13:34:59.807Z,475
2017-10-06T13:36:08.650Z,1455
2017-10-06T13:37:17.645Z,1145
2017-10-06T13:38:26.489Z,620
2017-10-06T13:39:35.334Z,850
2017-10-06T13:40:44.182Z,680
2017-10-06T13:41:53.079Z,255
2017-10-06T13:43:02.229Z,220
2017-10-06T13:44:11.073Z,595
2017-10-06T13:45:20.250Z,230
2017-10-06T13:46:29.095Z,210
2017-10-06T13:47:37.943Z,375
2017-10-06T13:48:46.889Z,670
2017-10-06T13:49:55.738Z,710
2017-10-06T13:51:04.588Z,635
2017-10-06T13:52:13.772Z,595
2017-10-06T13:53:22.618Z,660
2017-10-06T13:54:31.767Z,610
2017-10-06T13:55:40.621Z,830
2017-10-06T13:56:49.470Z,630
2017-10-06T13:57:58.318Z,575
2017-10-06T13:59:07.168Z,565
2017-10-06T14:00:16.165Z,675
2017-10-06T14:01:25.013Z,490
2017-10-06T14:02:33.862Z,455
2017-10-06T14:03:42.709Z,690
2017-10-06T14:04:51.558Z,700
2017-10-06T14:06:00.457Z,570
2017-10-06T14:07:09.309Z,365
2017-10-06T14:08:18.157Z,525
2017-10-06T14:09:27.007Z,410
2017-10-06T14:10:35.862Z,540
2017-10-06T14:11:44.755Z,500
2017-10-06T14:12:53.602Z,365
2017-10-06T14:14:02.785Z,680
2017-10-06T14:15:11.634Z,1080
2017-10-06T14:16:20.478Z,1115
2017-10-06T14:17:29.382Z,800
2017-10-06T14:18:38.228Z,860
2017-10-06T14:19:47.078Z,990
2017-10-06T14:20:55.927Z,1060
2017-10-06T14:22:04.775Z,840
2017-10-06T14:23:13.676Z,855
2017-10-06T14:24:22.856Z,450
2017-10-06T14:25:31.704Z,415
2017-10-06T14:26:40.551Z,375
2017-10-06T14:27:49.404Z,325
2017-10-06T14:28:58.401Z,335
2017-10-06T14:30:07.251Z,330
2017-10-06T14:31:16.101Z,380
2017-10-06T14:32:24.949Z,420
2017-10-06T14:33:34.138Z,455
2017-10-06T14:34:43.137Z,385
2017-10-06T14:35:51.985Z,265
2017-10-06T14:37:00.833Z,265
2017-10-06T14:38:09.684Z,270
2017-10-06T14:39:18.531Z,265
2017-10-06T14:40:27.382Z,260
2017-10-06T14:41:36.230Z,255
2017-10-06T14:42:45.078Z,260
2017-10-06T14:43:53.924Z,260
2017-10-06T14:45:03.106Z,255
2017-10-06T14:46:12.101Z,255
2017-10-06T14:47:20.947Z,255
2017-10-06T14:48:29.794Z,255
2017-10-06T14:49:38.641Z,265
2017-10-06T14:50:47.487Z,260
2017-10-06T14:51:56.487Z,310
2017-10-06T14:53:05.333Z,285
2017-10-06T14:54:14.181Z,275
2017-10-06T14:55:23.026Z,270
2017-10-06T14:56:31.876Z,255
2017-10-06T14:57:40.924Z,275
2017-10-06T14:58:49.772Z,275
2017-10-06T14:59:58.616Z,295
2017-10-06T15:01:07.795Z,285
2017-10-06T15:02:16.645Z,285
2017-10-06T15:03:25.593Z,280
2017-10-06T15:04:34.440Z,315
2017-10-06T15:05:43.288Z,350
2017-10-06T15:06:52.238Z,340
2017-10-06T15:08:01.087Z,380
2017-10-06T15:09:09.986Z,360
2017-10-06T15:10:19.166Z,380
2017-10-06T15:11:28.012Z,370
2017-10-06T15:12:36.863Z,340
2017-10-06T15:13:45.709Z,315
2017-10-06T15:14:54.556Z,280
2017-10-06T15:16:03.402Z,310
2017-10-06T15:17:12.250Z,385
2017-10-06T15:18:21.097Z,425
2017-10-06T15:19:29.945Z,465
2017-10-06T15:20:39.042Z,435
2017-10-06T15:21:47.890Z,370
2017-10-06T15:22:56.737Z,365
2017-10-06T15:24:05.587Z,390
2017-10-06T15:25:14.770Z,440
2017-10-06T15:26:24.151Z,445
2017-10-06T15:27:32.999Z,370
2017-10-06T15:28:41.845Z,310
2017-10-06T15:29:50.693Z,300
2017-10-06T15:30:59.541Z,295
2017-10-06T15:32:08.536Z,315
2017-10-06T15:33:17.381Z,300
2017-10-06T15:34:26.228Z,295
2017-10-06T15:35:35.076Z,305
2017-10-06T15:36:43.921Z,320
2017-10-06T15:37:52.917Z,380
2017-10-06T15:39:01.790Z,395
2017-10-06T15:40:10.615Z,375
2017-10-06T15:41:19.466Z,350
2017-10-06T15:42:28.314Z,340
2017-10-06T15:43:37.360Z,330
2017-10-06T15:44:46.208Z,280
2017-10-06T15:45:55.056Z,285
2017-10-06T15:47:04.234Z,300
2017-10-06T15:48:13.081Z,305
2017-10-06T15:49:22.079Z,295
2017-10-06T15:50:30.925Z,210
2017-10-06T15:51:40.104Z,185
2017-10-06T15:52:48.952Z,160
2017-10-06T15:53:57.807Z,150
2017-10-06T15:55:06.705Z,150
2017-10-06T15:56:15.552Z,120
2017-10-06T15:57:24.398Z,115
2017-10-06T15:58:33.247Z,115
2017-10-06T15:59:42.094Z,115
2017-10-06T16:00:51.093Z,105
2017-10-06T16:01:59.939Z,115
2017-10-06T16:03:08.786Z,120
2017-10-06T16:04:17.633Z,120
2017-10-06T16:05:26.481Z,120
2017-10-06T16:06:35.381Z,115
2017-10-06T16:07:44.230Z,115
2017-10-06T16:08:53.075Z,110
2017-10-06T16:10:01.925Z,105
2017-10-06T16:11:10.772Z,100
2017-10-06T16:12:19.673Z,95
2017-10-06T16:13:28.520Z,95
2017-10-06T16:14:37.368Z,90
2017-10-06T16:15:46.216Z,90
2017-10-06T16:16:55.066Z,85
2017-10-06T16:18:03.964Z,80
2017-10-06T16:19:12.813Z,80